KR-0419 weather

Jinheung Majestry War Apartments Heliports
Busan, Busan Gwang'yeogsi, South Korea

Public forecast

Using degrees Celsius for public forecast. Weather courtesy of forecast.io.

Closest aviation weather report (METAR) to Jinheung Majestry War Apartments Heliports

Closest report is Gimhae International Airport, 6.8 nm (12.5 km) WNW. Retrieved 2020/08/07 12:15 UTC (29 minutes ago):

RKPK 071215Z 22007KT 800 R36/1500 +TSRA FG SCT005 BKN010 FEW018CB OVC030 25/24 A2972 RMK CIG010 OCNL LTG IC TS W MOV E

Closest aviation forecast (TAF) to Jinheung Majestry War Apartments Heliports

Closest forecast is Gimhae International Airport, 6.8 nm (12.5 km) WNW. Retrieved 2020/08/07 12:00 UTC (44 minutes ago):

TAF RKPK 071100Z 0712/0818 36006KT 4800 -RA BR BKN015 OVC030 TN23/0720Z TX27/0805Z TEMPO 0716/0721 18006KT 3200 SCT010 BKN015 OVC025